createdAt,value
2023-02-19T00:00:04.779Z,101703.97
2023-02-19T00:02:42.683Z,101705.75
2023-02-19T00:05:12.635Z,101715.47
2023-02-19T00:07:41.079Z,101704.88
2023-02-19T00:10:09.806Z,101711.06
2023-02-19T00:12:38.157Z,101708.44
2023-02-19T00:15:07.137Z,101688.09
2023-02-19T00:17:35.470Z,101701.34
2023-02-19T00:20:03.889Z,101698.69
2023-02-19T00:22:33.628Z,101707.53
2023-02-19T00:25:02.007Z,101711.94
2023-02-19T00:27:30.310Z,101712.00
2023-02-19T00:29:58.693Z,101693.38
2023-02-19T00:32:27.085Z,101647.31
2023-02-19T00:34:55.455Z,101723.44
2023-02-19T00:37:23.785Z,101732.25
2023-02-19T00:39:53.507Z,101712.81
2023-02-19T00:42:21.925Z,101718.13
2023-02-19T00:44:50.371Z,101724.34
2023-02-19T00:47:21.634Z,101725.19
2023-02-19T00:49:50.123Z,101731.38
2023-02-19T00:52:18.499Z,101730.47
2023-02-19T00:54:46.865Z,101733.16
2023-02-19T00:57:16.597Z,101734.91
2023-02-19T00:59:45.254Z,101733.13
2023-02-19T01:02:13.690Z,101736.66
2023-02-19T01:04:42.070Z,101737.53
2023-02-19T01:07:10.912Z,101726.06
2023-02-19T01:09:39.286Z,101731.31
2023-02-19T01:12:08.302Z,101734.88
2023-02-19T01:14:37.983Z,101726.94
2023-02-19T01:17:06.261Z,101733.13
2023-02-19T01:19:34.601Z,101746.41
2023-02-19T01:22:03.007Z,101742.03
2023-02-19T01:24:31.725Z,101745.53
2023-02-19T01:27:00.121Z,101742.91
2023-02-19T01:29:28.501Z,101743.78
2023-02-19T01:31:58.511Z,101742.00
2023-02-19T01:34:27.240Z,101736.69
2023-02-19T01:36:55.557Z,101745.50
2023-02-19T01:39:23.921Z,101743.78
2023-02-19T01:41:52.201Z,101744.66
2023-02-19T01:45:14.342Z,101744.56
2023-02-19T01:47:44.203Z,101741.06
2023-02-19T01:50:12.742Z,101664.03
2023-02-19T01:52:41.216Z,101745.47
2023-02-19T01:55:13.500Z,101741.91
2023-02-19T01:57:47.394Z,101756.09
2023-02-19T02:00:18.666Z,101756.09
2023-02-19T02:02:53.261Z,101759.66
2023-02-19T02:05:35.834Z,101625.88
2023-02-19T02:08:22.742Z,101748.13
2023-02-19T02:10:52.309Z,101750.72
2023-02-19T02:13:21.106Z,101756.91
2023-02-19T02:16:01.400Z,101756.00
2023-02-19T02:18:44.992Z,101753.28
2023-02-19T02:21:44.546Z,101744.44
2023-02-19T02:24:45.533Z,101731.09
2023-02-19T02:27:41.781Z,101762.09
2023-02-19T02:30:36.091Z,101758.59
2023-02-19T02:33:16.035Z,101748.00
2023-02-19T02:35:49.425Z,101764.81
2023-02-19T02:38:22.808Z,101764.81
2023-02-19T02:40:51.747Z,101762.13
2023-02-19T02:43:20.385Z,101757.63
2023-02-19T02:45:50.313Z,101771.84
2023-02-19T02:48:37.190Z,101747.97
2023-02-19T02:51:15.554Z,101763.91
2023-02-19T02:54:18.661Z,101764.78
2023-02-19T02:56:49.629Z,101786.84
2023-02-19T02:59:23.575Z,101777.22
2023-02-19T03:02:14.119Z,101778.06
2023-02-19T03:05:09.506Z,101789.53
2023-02-19T03:07:42.465Z,101778.03
2023-02-19T03:10:18.338Z,101788.69
2023-02-19T03:13:04.956Z,101785.16
2023-02-19T03:15:56.712Z,101771.88
2023-02-19T03:18:47.006Z,101798.44
2023-02-19T03:21:18.558Z,101799.38
2023-02-19T03:24:05.351Z,101800.22
2023-02-19T03:26:36.513Z,101809.06
2023-02-19T03:29:25.412Z,101798.47
2023-02-19T03:32:04.005Z,101803.59
2023-02-19T03:34:39.156Z,101807.19
2023-02-19T03:37:14.391Z,101813.34
2023-02-19T03:39:45.337Z,101818.56
2023-02-19T03:42:24.927Z,101811.47
2023-02-19T03:45:12.356Z,101815.88
2023-02-19T03:47:49.861Z,101828.94
2023-02-19T03:50:25.643Z,101839.63
2023-02-19T03:53:06.207Z,101842.16
2023-02-19T03:55:42.615Z,101871.34
2023-02-19T03:58:16.112Z,101845.72
2023-02-19T04:00:52.423Z,101842.16
2023-02-19T04:03:27.794Z,101841.19
2023-02-19T04:06:03.761Z,101846.44
2023-02-19T04:08:36.213Z,101845.47
2023-02-19T04:11:07.866Z,101829.53
2023-02-19T04:13:44.748Z,101847.22
2023-02-19T04:16:21.148Z,101851.78
2023-02-19T04:18:53.322Z,101851.75
2023-02-19T04:21:24.496Z,101854.44
2023-02-19T04:23:53.263Z,101858.00
2023-02-19T04:26:23.920Z,101853.59
2023-02-19T04:28:52.207Z,101851.84
2023-02-19T04:31:20.561Z,101865.88
2023-02-19T04:33:49.063Z,101864.13
2023-02-19T04:36:17.357Z,101878.28
2023-02-19T04:38:47.035Z,101880.00
2023-02-19T04:41:15.413Z,101880.94
2023-02-19T04:43:43.674Z,101895.91
2023-02-19T04:46:12.053Z,101860.50
2023-02-19T04:48:40.344Z,101905.66
2023-02-19T04:51:09.585Z,101902.91
2023-02-19T04:53:38.414Z,101910.81
2023-02-19T04:56:09.684Z,101914.31
2023-02-19T04:58:38.326Z,101921.34
2023-02-19T05:01:07.578Z,101927.47
2023-02-19T05:03:36.227Z,101927.47
2023-02-19T05:06:05.555Z,101929.19
2023-02-19T05:08:34.210Z,101944.09
2023-02-19T05:11:04.554Z,101936.09
2023-02-19T05:13:35.110Z,101950.25
2023-02-19T05:16:05.535Z,101965.34
2023-02-19T05:18:35.381Z,101966.03
2023-02-19T05:21:03.907Z,101962.56
2023-02-19T05:23:32.226Z,101972.22
2023-02-19T05:26:00.620Z,101978.41
2023-02-19T05:28:29.628Z,101984.63
2023-02-19T05:30:59.476Z,101980.06
2023-02-19T05:33:27.926Z,101972.97
2023-02-19T05:35:57.073Z,101963.19
2023-02-19T05:38:25.797Z,101945.34
2023-02-19T05:40:54.085Z,101955.19
2023-02-19T05:43:22.424Z,101956.00
2023-02-19T05:45:50.675Z,101959.72
2023-02-19T05:48:20.357Z,101961.47
2023-02-19T05:50:48.636Z,101961.47
2023-02-19T05:53:16.951Z,101969.41
2023-02-19T05:55:45.318Z,101963.31
2023-02-19T05:58:13.634Z,101975.84
2023-02-19T06:00:41.981Z,101975.69
2023-02-19T06:03:10.341Z,101980.19
2023-02-19T06:05:40.321Z,101987.25
2023-02-19T06:08:08.809Z,101987.28
2023-02-19T06:10:38.437Z,101999.63
2023-02-19T06:13:06.810Z,102001.44
2023-02-19T06:15:35.186Z,101998.75
2023-02-19T06:18:04.400Z,101974.63
2023-02-19T06:20:32.981Z,101996.03
2023-02-19T06:23:02.761Z,101880.44
2023-02-19T06:25:31.153Z,102010.81
2023-02-19T06:27:59.524Z,102013.41
2023-02-19T06:30:27.832Z,102020.50
2023-02-19T06:32:56.215Z,102015.19
2023-02-19T06:35:24.586Z,102022.22
2023-02-19T06:37:52.961Z,102020.47
2023-02-19T06:40:22.754Z,102025.06
2023-02-19T06:42:51.083Z,102046.25
2023-02-19T06:45:19.468Z,102027.88
2023-02-19T06:47:48.019Z,102028.69
2023-02-19T06:50:16.953Z,101916.34
2023-02-19T06:52:45.590Z,102037.53
2023-02-19T06:55:14.169Z,102058.66
2023-02-19T06:57:44.185Z,101984.28
2023-02-19T07:00:13.628Z,101778.50
2023-02-19T07:02:42.098Z,102055.44
2023-02-19T07:05:11.259Z,102048.00
2023-02-19T07:07:39.697Z,102042.66
2023-02-19T07:10:08.901Z,102057.81
2023-02-19T07:12:40.563Z,102075.16
2023-02-19T07:15:11.552Z,102064.81
2023-02-19T07:17:40.113Z,102068.31
2023-02-19T07:20:09.042Z,102044.31
2023-02-19T07:22:37.631Z,102076.06
2023-02-19T07:25:06.707Z,102083.31
2023-02-19T07:27:35.210Z,102082.38
2023-02-19T07:30:04.089Z,102079.72
2023-02-19T07:32:33.962Z,102101.00
2023-02-19T07:35:02.710Z,102112.56
2023-02-19T07:37:31.354Z,102125.63
2023-02-19T07:39:59.933Z,102118.47
2023-02-19T07:42:28.428Z,102113.94
2023-02-19T07:44:58.431Z,102096.91
2023-02-19T07:47:28.899Z,102102.97
2023-02-19T07:49:58.801Z,102134.94
2023-02-19T07:52:27.416Z,102135.84
2023-02-19T07:54:56.100Z,102130.44
2023-02-19T07:57:31.364Z,102140.97
2023-02-19T08:00:00.277Z,102162.25
2023-02-19T08:02:45.989Z,102169.06
2023-02-19T08:05:16.147Z,102167.34
2023-02-19T08:07:45.038Z,102158.31
2023-02-19T08:10:32.361Z,102183.78
2023-02-19T08:13:22.652Z,102182.31
2023-02-19T08:15:55.094Z,102157.31
2023-02-19T08:18:27.215Z,102183.34
2023-02-19T08:20:58.786Z,102184.25
2023-02-19T08:23:27.901Z,102186.03
2023-02-19T08:26:02.162Z,102145.97
2023-02-19T08:28:31.228Z,102210.78
2023-02-19T08:31:08.138Z,102184.50
2023-02-19T08:33:36.872Z,102106.56
2023-02-19T08:36:09.838Z,102180.03
2023-02-19T08:38:40.197Z,102149.56
2023-02-19T08:41:10.994Z,102192.34
2023-02-19T08:43:39.831Z,102190.66
2023-02-19T08:46:12.530Z,102184.19
2023-02-19T08:48:41.911Z,102167.06
2023-02-19T08:51:13.335Z,102198.56
2023-02-19T08:53:44.728Z,102202.84
2023-02-19T08:56:16.158Z,102173.09
2023-02-19T08:58:45.671Z,102189.38
2023-02-19T09:01:18.392Z,102167.47
2023-02-19T09:03:47.130Z,102166.66
2023-02-19T09:06:20.417Z,102127.75
2023-02-19T09:08:48.904Z,102204.97
2023-02-19T09:11:17.504Z,102155.97
2023-02-19T09:13:46.647Z,102181.78
2023-02-19T09:16:15.155Z,102188.16
2023-02-19T09:18:45.977Z,102229.25
2023-02-19T09:21:14.765Z,102177.75
2023-02-19T09:23:44.746Z,102226.84
2023-02-19T09:26:14.114Z,102201.19
2023-02-19T09:28:43.317Z,102188.44
2023-02-19T09:31:15.127Z,102264.81
2023-02-19T09:33:44.955Z,101931.19
2023-02-19T09:36:16.961Z,102256.09
2023-02-19T09:38:47.164Z,102228.34
2023-02-19T09:41:29.423Z,102265.56
2023-02-19T09:43:59.640Z,102285.06
2023-02-19T09:46:35.844Z,102258.63
2023-02-19T09:49:08.892Z,102229.63
2023-02-19T09:51:39.543Z,102296.53
2023-02-19T09:54:22.091Z,102262.06
2023-02-19T09:56:50.898Z,102296.09
2023-02-19T09:59:24.136Z,102272.28
2023-02-19T10:01:59.288Z,102304.44
2023-02-19T10:04:28.872Z,102301.00
2023-02-19T10:07:03.464Z,102301.91
2023-02-19T10:09:33.660Z,102268.63
2023-02-19T10:12:02.644Z,102272.97
2023-02-19T10:14:37.997Z,102303.28
2023-02-19T10:17:08.149Z,102313.47
2023-02-19T10:19:38.170Z,102318.69
2023-02-19T10:22:06.987Z,102317.63
2023-02-19T10:24:44.955Z,102337.94
2023-02-19T10:27:15.273Z,102264.00
2023-02-19T10:29:45.621Z,102347.16
2023-02-19T10:32:20.476Z,102345.25
2023-02-19T10:34:51.135Z,102275.94
2023-02-19T10:37:20.466Z,102351.59
2023-02-19T10:39:52.105Z,102336.34
2023-02-19T10:42:23.946Z,102297.06
2023-02-19T10:44:58.540Z,102318.38
2023-02-19T10:47:32.713Z,102336.06
2023-02-19T10:50:04.489Z,102354.97
2023-02-19T10:52:36.693Z,102360.63
2023-02-19T10:55:31.845Z,102361.53
2023-02-19T10:58:24.623Z,102334.97
2023-02-19T11:01:13.972Z,102346.69
2023-02-19T11:03:42.776Z,102356.34
2023-02-19T11:06:16.660Z,102358.38
2023-02-19T11:08:54.875Z,102351.59
2023-02-19T11:11:31.656Z,102339.25
2023-02-19T11:14:05.242Z,102320.66
2023-02-19T11:16:45.986Z,102350.41
2023-02-19T11:19:26.764Z,102345.47
2023-02-19T11:21:59.832Z,102347.28
2023-02-19T11:24:35.314Z,102347.25
2023-02-19T11:27:08.619Z,102307.31
2023-02-19T11:29:37.025Z,102353.59
2023-02-19T11:32:29.384Z,102348.44
2023-02-19T11:35:25.158Z,102346.81
2023-02-19T11:37:59.541Z,102345.88
2023-02-19T11:40:44.136Z,102319.03
2023-02-19T11:43:33.605Z,102335.03
2023-02-19T11:46:09.573Z,102353.47
2023-02-19T11:48:54.942Z,102252.84
2023-02-19T11:51:52.163Z,102348.28
2023-02-19T11:54:52.730Z,102349.25
2023-02-19T11:57:40.389Z,102295.00
2023-02-19T12:00:25.938Z,102267.13
2023-02-19T12:03:30.722Z,102348.19
2023-02-19T12:06:20.951Z,102361.66
2023-02-19T12:09:22.948Z,102367.84
2023-02-19T12:12:37.717Z,102372.34
2023-02-19T12:15:39.690Z,102376.28
2023-02-19T12:19:10.048Z,102350.13
2023-02-19T12:22:16.042Z,102340.09
2023-02-19T12:25:39.069Z,102381.41
2023-02-19T12:28:30.674Z,102331.69
2023-02-19T12:31:35.062Z,102326.28
2023-02-19T12:34:31.490Z,102402.81
2023-02-19T12:37:17.817Z,102403.50
2023-02-19T12:39:59.330Z,102399.22
2023-02-19T12:42:45.978Z,102405.00
2023-02-19T12:45:22.858Z,102355.66
2023-02-19T12:48:02.918Z,102424.56
2023-02-19T12:50:33.259Z,102390.94
2023-02-19T12:53:08.494Z,102437.28
2023-02-19T12:55:42.511Z,102443.34
2023-02-19T12:58:18.341Z,102429.06
2023-02-19T13:00:53.487Z,102452.28
2023-02-19T13:03:32.611Z,102453.88
2023-02-19T13:06:10.517Z,102447.81
2023-02-19T13:09:05.447Z,102465.28
2023-02-19T13:11:41.115Z,102469.50
2023-02-19T13:14:20.737Z,102473.00
2023-02-19T13:16:57.456Z,102469.16
2023-02-19T13:19:27.506Z,102467.00
2023-02-19T13:22:23.880Z,102450.03
2023-02-19T13:24:53.469Z,102434.34
2023-02-19T13:27:48.372Z,102471.22
2023-02-19T13:30:34.815Z,102354.72
2023-02-19T13:33:19.461Z,102459.91
2023-02-19T13:36:08.324Z,102468.06
2023-02-19T13:38:41.621Z,102490.72
2023-02-19T13:41:30.415Z,102489.13
2023-02-19T13:44:03.212Z,102479.84
2023-02-19T13:46:41.701Z,102493.78
2023-02-19T13:49:43.264Z,102503.66
2023-02-19T13:52:42.907Z,102528.81
2023-02-19T13:55:52.314Z,102513.19
2023-02-19T13:59:01.468Z,102512.75
2023-02-19T14:02:17.657Z,102507.81
2023-02-19T14:04:55.594Z,102513.66
2023-02-19T14:08:04.201Z,102450.97
2023-02-19T14:11:03.357Z,102515.59
2023-02-19T14:14:01.677Z,102522.13
2023-02-19T14:17:04.563Z,102517.41
2023-02-19T14:19:52.688Z,102511.09
2023-02-19T14:23:10.160Z,102509.16
2023-02-19T14:25:47.264Z,102487.69
2023-02-19T14:28:42.538Z,102507.94
2023-02-19T14:31:19.707Z,102535.91
2023-02-19T14:33:51.593Z,102530.69
2023-02-19T14:36:32.903Z,102511.47
2023-02-19T14:39:07.197Z,102506.06
2023-02-19T14:41:41.804Z,102487.25
2023-02-19T14:44:19.477Z,102479.69
2023-02-19T14:47:00.250Z,102494.69
2023-02-19T14:49:36.292Z,102504.19
2023-02-19T14:52:08.504Z,102500.88
2023-02-19T14:54:43.902Z,102429.59
2023-02-19T14:57:20.413Z,102482.69
2023-02-19T14:59:58.687Z,102495.69
2023-02-19T15:02:28.781Z,102501.69
2023-02-19T15:04:58.595Z,102131.69
2023-02-19T15:07:31.570Z,102496.59
2023-02-19T15:10:05.911Z,102500.13
2023-02-19T15:12:41.629Z,102514.75
2023-02-19T15:15:18.445Z,102508.13
2023-02-19T15:17:47.105Z,102500.69
2023-02-19T15:20:21.138Z,102507.81
2023-02-19T15:22:50.191Z,102515.22
2023-02-19T15:25:22.945Z,102503.69
2023-02-19T15:27:52.169Z,102511.69
2023-02-19T15:30:25.533Z,102491.53
2023-02-19T15:32:56.347Z,102465.22
2023-02-19T15:35:25.348Z,102505.63
2023-02-19T15:37:55.678Z,102519.81
2023-02-19T15:40:32.472Z,102518.00
2023-02-19T15:43:02.418Z,102506.34
2023-02-19T15:45:40.400Z,102517.69
2023-02-19T15:48:15.456Z,102523.84
2023-02-19T15:50:49.260Z,102193.44
2023-02-19T15:53:20.593Z,102517.13
2023-02-19T15:56:00.412Z,102509.94
2023-02-19T15:58:34.732Z,102532.50
2023-02-19T16:01:08.486Z,102397.75
2023-02-19T16:03:37.148Z,102556.09
2023-02-19T16:06:11.334Z,102544.09
2023-02-19T16:08:41.967Z,102551.19
2023-02-19T16:11:34.234Z,102544.94
2023-02-19T16:14:24.171Z,102535.16
2023-02-19T16:16:56.156Z,102523.81
2023-02-19T16:19:28.493Z,102563.50
2023-02-19T16:21:57.955Z,102541.09
2023-02-19T16:24:32.954Z,102524.44
2023-02-19T16:27:04.619Z,102541.81
2023-02-19T16:29:34.549Z,102548.09
2023-02-19T16:32:10.372Z,102452.16
2023-02-19T16:34:42.908Z,102158.16
2023-02-19T16:37:37.462Z,102498.97
2023-02-19T16:40:59.890Z,102492.50
2023-02-19T16:43:32.946Z,102545.44
2023-02-19T16:46:01.901Z,102520.63
2023-02-19T16:48:32.348Z,102421.13
2023-02-19T16:51:01.625Z,102517.97
2023-02-19T16:53:30.490Z,102456.44
2023-02-19T16:55:59.800Z,102552.84
2023-02-19T16:58:29.778Z,102547.34
2023-02-19T17:00:58.651Z,102510.78
2023-02-19T17:03:27.935Z,102461.41
2023-02-19T17:05:57.846Z,102532.78
2023-02-19T17:08:37.094Z,102567.03
2023-02-19T17:11:08.880Z,102572.41
2023-02-19T17:13:41.430Z,102558.25
2023-02-19T17:16:18.228Z,102572.53
2023-02-19T17:18:46.800Z,102572.84
2023-02-19T17:21:18.001Z,102547.56
2023-02-19T17:23:46.735Z,102379.72
2023-02-19T17:26:16.816Z,102576.69
2023-02-19T17:28:49.972Z,102552.53
2023-02-19T17:31:19.128Z,102519.91
2023-02-19T17:33:47.663Z,102496.00
2023-02-19T17:36:19.593Z,102581.28
2023-02-19T17:38:48.117Z,102574.34
2023-02-19T17:41:17.009Z,102577.25
2023-02-19T17:43:45.780Z,102579.81
2023-02-19T17:46:18.615Z,102570.72
2023-02-19T17:48:47.164Z,102594.84
2023-02-19T17:51:15.742Z,102468.75
2023-02-19T17:53:46.594Z,102569.97
2023-02-19T17:56:19.831Z,102586.25
2023-02-19T17:58:49.688Z,102589.31
2023-02-19T18:01:19.724Z,102569.91
2023-02-19T18:03:48.622Z,102597.75
2023-02-19T18:06:17.328Z,102604.88
2023-02-19T18:08:50.943Z,102580.13
2023-02-19T18:11:22.195Z,102603.09
2023-02-19T18:13:52.017Z,102468.56
2023-02-19T18:16:22.772Z,102585.56
2023-02-19T18:18:51.299Z,102588.31
2023-02-19T18:21:19.919Z,102448.13
2023-02-19T18:23:48.913Z,102516.94
2023-02-19T18:26:21.285Z,102572.09
2023-02-19T18:28:50.052Z,102495.41
2023-02-19T18:31:20.757Z,102558.84
2023-02-19T18:33:50.476Z,102561.31
2023-02-19T18:36:18.952Z,102516.91
2023-02-19T18:38:47.588Z,102534.69
2023-02-19T18:41:20.321Z,102544.41
2023-02-19T18:43:49.852Z,102557.75
2023-02-19T18:46:24.270Z,102559.59
2023-02-19T18:48:54.388Z,102555.22
2023-02-19T18:51:23.622Z,102549.84
2023-02-19T18:53:54.456Z,102521.94
2023-02-19T18:56:23.105Z,102547.00
2023-02-19T18:58:51.676Z,102516.31
2023-02-19T19:01:20.355Z,102563.00
2023-02-19T19:03:48.925Z,102559.53
2023-02-19T19:06:19.033Z,102571.94
2023-02-19T19:08:48.518Z,102519.97
2023-02-19T19:11:17.180Z,102561.25
2023-02-19T19:13:47.997Z,102533.19
2023-02-19T19:16:16.589Z,102566.41
2023-02-19T19:18:45.719Z,102562.78
2023-02-19T19:21:18.609Z,102560.91
2023-02-19T19:23:47.911Z,102551.78
2023-02-19T19:26:17.423Z,102446.34
2023-02-19T19:28:46.902Z,102561.66
2023-02-19T19:31:17.861Z,102558.97
2023-02-19T19:33:48.509Z,102562.47
2023-02-19T19:36:24.379Z,102283.00
2023-02-19T19:38:53.548Z,102550.06
2023-02-19T19:41:27.279Z,102483.91
2023-02-19T19:43:55.787Z,102558.84
2023-02-19T19:46:24.252Z,102546.28
2023-02-19T19:48:54.203Z,102250.97
2023-02-19T19:51:40.317Z,102548.09
2023-02-19T19:54:08.814Z,102531.00
2023-02-19T19:56:42.427Z,102539.75
2023-02-19T19:59:12.008Z,102543.50
2023-02-19T20:01:40.843Z,102550.56
2023-02-19T20:04:11.626Z,102522.84
2023-02-19T20:06:41.587Z,102544.44
2023-02-19T20:09:12.813Z,102435.38
2023-02-19T20:11:49.449Z,102506.84
2023-02-19T20:14:22.561Z,102553.31
2023-02-19T20:16:51.389Z,102551.53
2023-02-19T20:19:21.279Z,102540.94
2023-02-19T20:21:56.172Z,102540.06
2023-02-19T20:24:28.856Z,102523.06
2023-02-19T20:27:00.509Z,102549.66
2023-02-19T20:29:30.010Z,102495.41
2023-02-19T20:32:00.406Z,102533.94
2023-02-19T20:34:29.720Z,102532.94
2023-02-19T20:37:04.308Z,102532.00
2023-02-19T20:39:33.502Z,102521.25
2023-02-19T20:42:02.866Z,102526.50
2023-02-19T20:44:34.762Z,102504.97
2023-02-19T20:47:03.236Z,102511.22
2023-02-19T20:49:34.343Z,102521.94
2023-02-19T20:52:09.072Z,102517.56
2023-02-19T20:54:40.010Z,102522.75
2023-02-19T20:57:09.796Z,102520.09
2023-02-19T20:59:40.863Z,102519.13
2023-02-19T21:02:24.590Z,102512.88
2023-02-19T21:04:53.215Z,102517.41
2023-02-19T21:07:23.513Z,102506.09
2023-02-19T21:09:52.992Z,102510.44
2023-02-19T21:12:24.837Z,102480.72
2023-02-19T21:14:53.322Z,102513.84
2023-02-19T21:17:21.868Z,102499.53
2023-02-19T21:19:53.458Z,102399.38
2023-02-19T21:22:23.752Z,102502.34
2023-02-19T21:24:53.722Z,102460.16
2023-02-19T21:27:22.334Z,102495.94
2023-02-19T21:29:54.460Z,102503.00
2023-02-19T21:32:23.082Z,102445.97
2023-02-19T21:34:51.830Z,102486.38
2023-02-19T21:37:22.907Z,102483.81
2023-02-19T21:39:54.780Z,102478.38
2023-02-19T21:42:23.191Z,102470.13
2023-02-19T21:44:51.737Z,102473.84
2023-02-19T21:47:20.188Z,102391.56
2023-02-19T21:49:48.857Z,102466.84
2023-02-19T21:52:18.065Z,102480.03
2023-02-19T21:54:46.994Z,102427.50
2023-02-19T21:57:17.033Z,102379.97
2023-02-19T21:59:45.689Z,102464.19
2023-02-19T22:02:14.358Z,102449.78
2023-02-19T22:04:42.996Z,102474.75
2023-02-19T22:07:11.447Z,102483.63
2023-02-19T22:09:39.837Z,102451.66
2023-02-19T22:12:08.540Z,102455.31
2023-02-19T22:14:38.573Z,102466.16
2023-02-19T22:17:09.096Z,102442.97
2023-02-19T22:19:37.567Z,102466.28
2023-02-19T22:22:06.239Z,102437.78
2023-02-19T22:24:34.632Z,102453.91
2023-02-19T22:27:03.229Z,102427.16
2023-02-19T22:29:31.995Z,102393.03
2023-02-19T22:32:02.031Z,102452.03
2023-02-19T22:34:30.561Z,102419.97
2023-02-19T22:36:58.926Z,102450.31
2023-02-19T22:39:28.293Z,102447.66
2023-02-19T22:41:56.867Z,102453.06
2023-02-19T22:44:28.101Z,102450.56
2023-02-19T22:46:57.939Z,102455.09
2023-02-19T22:49:27.800Z,102420.31
2023-02-19T22:51:59.754Z,102413.19
2023-02-19T22:54:28.287Z,102446.41
2023-02-19T22:56:57.247Z,102470.94
2023-02-19T22:59:25.951Z,102436.53
2023-02-19T23:01:55.129Z,102414.22
2023-02-19T23:04:29.252Z,102406.19
2023-02-19T23:06:57.800Z,102376.72
2023-02-19T23:09:29.429Z,102408.91
2023-02-19T23:12:03.562Z,102407.00
2023-02-19T23:14:33.119Z,102420.50
2023-02-19T23:17:01.928Z,102427.41
2023-02-19T23:19:33.440Z,102366.00
2023-02-19T23:22:05.302Z,102405.19
2023-02-19T23:24:34.025Z,102271.28
2023-02-19T23:27:02.499Z,102392.88
2023-02-19T23:29:31.677Z,102406.88
2023-02-19T23:32:02.453Z,102411.25
2023-02-19T23:34:32.380Z,102211.44
2023-02-19T23:37:02.313Z,102410.47
2023-02-19T23:39:33.259Z,102405.22
2023-02-19T23:42:04.102Z,102395.53
2023-02-19T23:44:36.570Z,102380.47
2023-02-19T23:47:04.988Z,102395.50
2023-02-19T23:49:34.747Z,102375.19
2023-02-19T23:52:03.351Z,102396.56
2023-02-19T23:54:31.983Z,102384.25
2023-02-19T23:57:00.456Z,102393.22
2023-02-19T23:59:28.843Z,102390.59
